sensor_id;sensor_type;location;lat;lon;timestamp;P1;durP1;ratioP1;P2;durP2;ratioP2
3299;SDS011;1662;49.310;8.134;2023-09-18T00:01:48;5.40;;;4.57;;
3299;SDS011;1662;49.310;8.134;2023-09-18T00:04:13;4.23;;;3.93;;
3299;SDS011;1662;49.310;8.134;2023-09-18T00:06:39;4.80;;;4.40;;
3299;SDS011;1662;49.310;8.134;2023-09-18T00:09:07;4.93;;;4.60;;
3299;SDS011;1662;49.310;8.134;2023-09-18T00:11:36;4.23;;;3.93;;
3299;SDS011;1662;49.310;8.134;2023-09-18T00:14:03;4.20;;;4.00;;
3299;SDS011;1662;49.310;8.134;2023-09-18T00:16:29;7.70;;;4.03;;
3299;SDS011;1662;49.310;8.134;2023-09-18T00:18:55;5.17;;;4.67;;
3299;SDS011;1662;49.310;8.134;2023-09-18T00:21:20;4.20;;;3.90;;
3299;SDS011;1662;49.310;8.134;2023-09-18T00:23:46;5.67;;;4.37;;
3299;SDS011;1662;49.310;8.134;2023-09-18T00:26:12;4.37;;;4.00;;
3299;SDS011;1662;49.310;8.134;2023-09-18T00:28:37;4.73;;;4.33;;
3299;SDS011;1662;49.310;8.134;2023-09-18T00:31:05;5.53;;;4.30;;
3299;SDS011;1662;49.310;8.134;2023-09-18T00:33:36;5.30;;;4.27;;
3299;SDS011;1662;49.310;8.134;2023-09-18T00:36:03;5.50;;;4.07;;
3299;SDS011;1662;49.310;8.134;2023-09-18T00:38:33;4.17;;;3.80;;
3299;SDS011;1662;49.310;8.134;2023-09-18T00:40:59;3.93;;;3.73;;
3299;SDS011;1662;49.310;8.134;2023-09-18T00:43:24;4.03;;;3.73;;
3299;SDS011;1662;49.310;8.134;2023-09-18T00:45:52;4.27;;;3.87;;
3299;SDS011;1662;49.310;8.134;2023-09-18T00:48:18;5.20;;;4.80;;
3299;SDS011;1662;49.310;8.134;2023-09-18T00:50:45;4.20;;;4.00;;
3299;SDS011;1662;49.310;8.134;2023-09-18T00:53:12;5.17;;;4.67;;
3299;SDS011;1662;49.310;8.134;2023-09-18T00:55:40;4.10;;;3.80;;
3299;SDS011;1662;49.310;8.134;2023-09-18T00:58:06;4.80;;;4.33;;
3299;SDS011;1662;49.310;8.134;2023-09-18T01:00:32;10.27;;;4.93;;
3299;SDS011;1662;49.310;8.134;2023-09-18T01:02:58;4.70;;;4.30;;
3299;SDS011;1662;49.310;8.134;2023-09-18T01:05:25;4.40;;;4.00;;
3299;SDS011;1662;49.310;8.134;2023-09-18T01:07:51;4.87;;;4.50;;
3299;SDS011;1662;49.310;8.134;2023-09-18T01:10:17;4.20;;;3.90;;
3299;SDS011;1662;49.310;8.134;2023-09-18T01:12:48;5.00;;;4.60;;
3299;SDS011;1662;49.310;8.134;2023-09-18T01:15:22;4.83;;;4.33;;
3299;SDS011;1662;49.310;8.134;2023-09-18T01:17:55;5.63;;;3.90;;
3299;SDS011;1662;49.310;8.134;2023-09-18T01:20:21;6.63;;;4.00;;
3299;SDS011;1662;49.310;8.134;2023-09-18T01:22:46;5.90;;;3.93;;
3299;SDS011;1662;49.310;8.134;2023-09-18T01:25:14;11.30;;;3.80;;
3299;SDS011;1662;49.310;8.134;2023-09-18T01:27:40;7.03;;;4.60;;
3299;SDS011;1662;49.310;8.134;2023-09-18T01:30:07;5.50;;;4.47;;
3299;SDS011;1662;49.310;8.134;2023-09-18T01:32:32;6.07;;;4.90;;
3299;SDS011;1662;49.310;8.134;2023-09-18T01:35:02;5.20;;;4.70;;
3299;SDS011;1662;49.310;8.134;2023-09-18T01:37:31;5.63;;;5.13;;
3299;SDS011;1662;49.310;8.134;2023-09-18T01:40:00;10.30;;;5.50;;
3299;SDS011;1662;49.310;8.134;2023-09-18T01:42:26;8.97;;;4.90;;
3299;SDS011;1662;49.310;8.134;2023-09-18T01:44:53;5.83;;;4.93;;
3299;SDS011;1662;49.310;8.134;2023-09-18T01:47:20;6.80;;;4.83;;
3299;SDS011;1662;49.310;8.134;2023-09-18T01:49:48;5.30;;;4.83;;
3299;SDS011;1662;49.310;8.134;2023-09-18T01:52:15;6.73;;;5.40;;
3299;SDS011;1662;49.310;8.134;2023-09-18T01:54:43;5.70;;;5.20;;
3299;SDS011;1662;49.310;8.134;2023-09-18T01:57:09;10.30;;;6.17;;
3299;SDS011;1662;49.310;8.134;2023-09-18T01:59:34;7.30;;;5.17;;
3299;SDS011;1662;49.310;8.134;2023-09-18T02:02:00;8.47;;;5.57;;
3299;SDS011;1662;49.310;8.134;2023-09-18T02:04:28;7.57;;;5.10;;
3299;SDS011;1662;49.310;8.134;2023-09-18T02:06:54;12.73;;;4.70;;
3299;SDS011;1662;49.310;8.134;2023-09-18T02:09:20;8.77;;;4.43;;
3299;SDS011;1662;49.310;8.134;2023-09-18T02:11:46;9.00;;;4.23;;
3299;SDS011;1662;49.310;8.134;2023-09-18T02:14:13;9.83;;;4.20;;
3299;SDS011;1662;49.310;8.134;2023-09-18T02:16:40;17.23;;;5.80;;
3299;SDS011;1662;49.310;8.134;2023-09-18T02:19:07;9.53;;;5.10;;
3299;SDS011;1662;49.310;8.134;2023-09-18T02:21:36;10.47;;;4.90;;
3299;SDS011;1662;49.310;8.134;2023-09-18T02:24:02;10.83;;;4.83;;
3299;SDS011;1662;49.310;8.134;2023-09-18T02:26:28;16.23;;;5.70;;
3299;SDS011;1662;49.310;8.134;2023-09-18T02:28:55;11.07;;;5.13;;
3299;SDS011;1662;49.310;8.134;2023-09-18T02:31:22;15.40;;;5.63;;
3299;SDS011;1662;49.310;8.134;2023-09-18T02:33:48;8.10;;;4.70;;
3299;SDS011;1662;49.310;8.134;2023-09-18T02:36:14;10.87;;;5.13;;
3299;SDS011;1662;49.310;8.134;2023-09-18T02:38:40;10.87;;;5.30;;
3299;SDS011;1662;49.310;8.134;2023-09-18T02:41:06;9.73;;;4.67;;
3299;SDS011;1662;49.310;8.134;2023-09-18T02:43:31;20.53;;;5.23;;
3299;SDS011;1662;49.310;8.134;2023-09-18T02:45:57;14.17;;;5.50;;
3299;SDS011;1662;49.310;8.134;2023-09-18T02:48:31;11.03;;;5.70;;
3299;SDS011;1662;49.310;8.134;2023-09-18T02:51:10;10.03;;;5.53;;
3299;SDS011;1662;49.310;8.134;2023-09-18T02:53:37;9.83;;;4.90;;
3299;SDS011;1662;49.310;8.134;2023-09-18T02:56:40;9.70;;;5.30;;
3299;SDS011;1662;49.310;8.134;2023-09-18T02:59:20;12.67;;;4.90;;
3299;SDS011;1662;49.310;8.134;2023-09-18T03:02:22;11.93;;;4.80;;
3299;SDS011;1662;49.310;8.134;2023-09-18T03:04:51;11.80;;;5.17;;
3299;SDS011;1662;49.310;8.134;2023-09-18T03:07:24;16.87;;;4.70;;
3299;SDS011;1662;49.310;8.134;2023-09-18T03:09:57;18.80;;;5.40;;
3299;SDS011;1662;49.310;8.134;2023-09-18T03:12:50;9.47;;;5.07;;
3299;SDS011;1662;49.310;8.134;2023-09-18T03:15:39;10.87;;;4.77;;
3299;SDS011;1662;49.310;8.134;2023-09-18T03:18:13;8.53;;;5.00;;
3299;SDS011;1662;49.310;8.134;2023-09-18T03:21:15;14.27;;;5.03;;
3299;SDS011;1662;49.310;8.134;2023-09-18T03:24:03;7.57;;;4.27;;
3299;SDS011;1662;49.310;8.134;2023-09-18T03:27:16;9.43;;;4.33;;
3299;SDS011;1662;49.310;8.134;2023-09-18T03:29:43;13.80;;;4.30;;
3299;SDS011;1662;49.310;8.134;2023-09-18T03:32:17;7.20;;;4.17;;
3299;SDS011;1662;49.310;8.134;2023-09-18T03:34:51;7.23;;;3.50;;
3299;SDS011;1662;49.310;8.134;2023-09-18T03:37:21;6.97;;;3.50;;
3299;SDS011;1662;49.310;8.134;2023-09-18T03:43:17;8.53;;;4.33;;
3299;SDS011;1662;49.310;8.134;2023-09-18T03:46:07;11.33;;;3.60;;
3299;SDS011;1662;49.310;8.134;2023-09-18T03:52:28;11.13;;;4.70;;
3299;SDS011;1662;49.310;8.134;2023-09-18T03:55:41;18.03;;;4.77;;
3299;SDS011;1662;49.310;8.134;2023-09-18T03:58:14;8.90;;;4.10;;
3299;SDS011;1662;49.310;8.134;2023-09-18T04:01:01;10.97;;;5.20;;
3299;SDS011;1662;49.310;8.134;2023-09-18T04:03:30;26.97;;;5.67;;
3299;SDS011;1662;49.310;8.134;2023-09-18T04:09:47;17.27;;;5.00;;
3299;SDS011;1662;49.310;8.134;2023-09-18T04:12:16;18.13;;;5.83;;
3299;SDS011;1662;49.310;8.134;2023-09-18T04:14:47;15.90;;;4.73;;
3299;SDS011;1662;49.310;8.134;2023-09-18T04:17:19;10.73;;;4.20;;
3299;SDS011;1662;49.310;8.134;2023-09-18T04:19:51;13.13;;;5.70;;
3299;SDS011;1662;49.310;8.134;2023-09-18T04:22:46;14.90;;;5.03;;
3299;SDS011;1662;49.310;8.134;2023-09-18T04:26:07;17.33;;;4.70;;
3299;SDS011;1662;49.310;8.134;2023-09-18T04:28:38;14.60;;;5.90;;
3299;SDS011;1662;49.310;8.134;2023-09-18T04:31:08;12.77;;;5.10;;
3299;SDS011;1662;49.310;8.134;2023-09-18T04:33:52;12.90;;;5.07;;
3299;SDS011;1662;49.310;8.134;2023-09-18T04:36:39;10.17;;;5.57;;
3299;SDS011;1662;49.310;8.134;2023-09-18T04:42:40;11.27;;;4.83;;
3299;SDS011;1662;49.310;8.134;2023-09-18T04:45:52;10.03;;;5.10;;
3299;SDS011;1662;49.310;8.134;2023-09-18T04:48:19;8.90;;;5.27;;
3299;SDS011;1662;49.310;8.134;2023-09-18T04:50:54;14.67;;;5.57;;
3299;SDS011;1662;49.310;8.134;2023-09-18T04:53:41;8.47;;;5.27;;
3299;SDS011;1662;49.310;8.134;2023-09-18T04:56:11;8.50;;;5.03;;
3299;SDS011;1662;49.310;8.134;2023-09-18T04:58:41;9.43;;;5.53;;
3299;SDS011;1662;49.310;8.134;2023-09-18T05:01:13;6.60;;;4.30;;
3299;SDS011;1662;49.310;8.134;2023-09-18T05:03:39;10.03;;;4.73;;
3299;SDS011;1662;49.310;8.134;2023-09-18T05:06:07;12.27;;;5.10;;
3299;SDS011;1662;49.310;8.134;2023-09-18T05:08:33;12.50;;;5.50;;
3299;SDS011;1662;49.310;8.134;2023-09-18T05:11:01;11.03;;;5.30;;
3299;SDS011;1662;49.310;8.134;2023-09-18T05:13:30;8.67;;;5.20;;
3299;SDS011;1662;49.310;8.134;2023-09-18T05:15:56;9.10;;;5.43;;
3299;SDS011;1662;49.310;8.134;2023-09-18T05:18:23;11.27;;;5.40;;
3299;SDS011;1662;49.310;8.134;2023-09-18T05:21:01;7.20;;;4.57;;
3299;SDS011;1662;49.310;8.134;2023-09-18T05:23:33;11.53;;;4.70;;
3299;SDS011;1662;49.310;8.134;2023-09-18T05:25:59;7.53;;;4.10;;
3299;SDS011;1662;49.310;8.134;2023-09-18T05:28:25;6.47;;;3.80;;
3299;SDS011;1662;49.310;8.134;2023-09-18T05:30:51;8.63;;;3.30;;
3299;SDS011;1662;49.310;8.134;2023-09-18T05:33:17;6.23;;;4.13;;
3299;SDS011;1662;49.310;8.134;2023-09-18T05:35:45;6.23;;;4.23;;
3299;SDS011;1662;49.310;8.134;2023-09-18T05:38:11;6.23;;;3.73;;
3299;SDS011;1662;49.310;8.134;2023-09-18T05:40:38;10.93;;;3.50;;
3299;SDS011;1662;49.310;8.134;2023-09-18T05:43:04;9.70;;;4.27;;
3299;SDS011;1662;49.310;8.134;2023-09-18T05:45:30;9.67;;;4.57;;
3299;SDS011;1662;49.310;8.134;2023-09-18T05:47:59;7.03;;;4.73;;
3299;SDS011;1662;49.310;8.134;2023-09-18T05:50:33;10.17;;;4.40;;
3299;SDS011;1662;49.310;8.134;2023-09-18T05:53:00;12.60;;;4.37;;
3299;SDS011;1662;49.310;8.134;2023-09-18T05:55:29;8.53;;;4.23;;
3299;SDS011;1662;49.310;8.134;2023-09-18T05:57:55;11.80;;;4.80;;
3299;SDS011;1662;49.310;8.134;2023-09-18T06:00:22;8.90;;;5.00;;
3299;SDS011;1662;49.310;8.134;2023-09-18T06:02:50;9.77;;;4.00;;
3299;SDS011;1662;49.310;8.134;2023-09-18T06:05:16;9.13;;;4.60;;
3299;SDS011;1662;49.310;8.134;2023-09-18T06:07:46;10.83;;;4.70;;
3299;SDS011;1662;49.310;8.134;2023-09-18T06:10:12;9.07;;;4.40;;
3299;SDS011;1662;49.310;8.134;2023-09-18T06:12:38;5.80;;;4.10;;
3299;SDS011;1662;49.310;8.134;2023-09-18T06:15:06;8.40;;;4.67;;
3299;SDS011;1662;49.310;8.134;2023-09-18T06:17:35;11.53;;;3.80;;
3299;SDS011;1662;49.310;8.134;2023-09-18T06:20:05;7.00;;;2.80;;
3299;SDS011;1662;49.310;8.134;2023-09-18T06:22:34;6.73;;;3.50;;
3299;SDS011;1662;49.310;8.134;2023-09-18T06:24:59;6.50;;;3.40;;
3299;SDS011;1662;49.310;8.134;2023-09-18T06:27:27;7.37;;;4.00;;
3299;SDS011;1662;49.310;8.134;2023-09-18T06:29:53;8.53;;;3.07;;
3299;SDS011;1662;49.310;8.134;2023-09-18T06:32:19;3.37;;;3.07;;
3299;SDS011;1662;49.310;8.134;2023-09-18T06:34:44;4.63;;;3.50;;
3299;SDS011;1662;49.310;8.134;2023-09-18T06:37:12;3.97;;;2.30;;
3299;SDS011;1662;49.310;8.134;2023-09-18T06:39:38;6.67;;;3.07;;
3299;SDS011;1662;49.310;8.134;2023-09-18T06:42:06;3.57;;;3.27;;
3299;SDS011;1662;49.310;8.134;2023-09-18T06:44:32;3.23;;;2.93;;
3299;SDS011;1662;49.310;8.134;2023-09-18T06:46:57;9.57;;;3.17;;
3299;SDS011;1662;49.310;8.134;2023-09-18T06:49:23;13.10;;;3.37;;
3299;SDS011;1662;49.310;8.134;2023-09-18T06:51:52;4.80;;;2.63;;
3299;SDS011;1662;49.310;8.134;2023-09-18T06:54:20;3.43;;;2.80;;
3299;SDS011;1662;49.310;8.134;2023-09-18T06:56:46;4.83;;;2.20;;
3299;SDS011;1662;49.310;8.134;2023-09-18T06:59:12;7.30;;;2.90;;
3299;SDS011;1662;49.310;8.134;2023-09-18T07:01:40;4.77;;;2.97;;
3299;SDS011;1662;49.310;8.134;2023-09-18T07:04:07;5.70;;;2.60;;
3299;SDS011;1662;49.310;8.134;2023-09-18T07:06:33;3.47;;;2.67;;
3299;SDS011;1662;49.310;8.134;2023-09-18T07:08:59;4.13;;;2.60;;
3299;SDS011;1662;49.310;8.134;2023-09-18T07:11:28;8.23;;;3.00;;
3299;SDS011;1662;49.310;8.134;2023-09-18T07:13:56;3.63;;;2.40;;
3299;SDS011;1662;49.310;8.134;2023-09-18T07:16:22;6.20;;;2.60;;
3299;SDS011;1662;49.310;8.134;2023-09-18T07:18:47;2.90;;;2.20;;
3299;SDS011;1662;49.310;8.134;2023-09-18T07:21:13;5.33;;;2.63;;
3299;SDS011;1662;49.310;8.134;2023-09-18T07:23:39;5.60;;;2.60;;
3299;SDS011;1662;49.310;8.134;2023-09-18T07:26:05;8.83;;;2.77;;
3299;SDS011;1662;49.310;8.134;2023-09-18T07:28:31;4.17;;;2.60;;
3299;SDS011;1662;49.310;8.134;2023-09-18T07:30:57;4.90;;;2.80;;
3299;SDS011;1662;49.310;8.134;2023-09-18T07:33:28;3.60;;;3.30;;
3299;SDS011;1662;49.310;8.134;2023-09-18T07:35:53;4.97;;;2.37;;
3299;SDS011;1662;49.310;8.134;2023-09-18T07:38:19;3.20;;;2.37;;
3299;SDS011;1662;49.310;8.134;2023-09-18T07:40:45;4.77;;;2.63;;
3299;SDS011;1662;49.310;8.134;2023-09-18T07:43:12;4.67;;;3.57;;
3299;SDS011;1662;49.310;8.134;2023-09-18T07:45:38;9.43;;;3.10;;
3299;SDS011;1662;49.310;8.134;2023-09-18T07:48:07;2.87;;;2.57;;
3299;SDS011;1662;49.310;8.134;2023-09-18T07:50:35;5.43;;;2.90;;
3299;SDS011;1662;49.310;8.134;2023-09-18T07:53:01;5.57;;;2.43;;
3299;SDS011;1662;49.310;8.134;2023-09-18T07:55:27;11.00;;;3.30;;
3299;SDS011;1662;49.310;8.134;2023-09-18T07:57:54;5.20;;;2.47;;
3299;SDS011;1662;49.310;8.134;2023-09-18T08:00:20;5.30;;;2.87;;
3299;SDS011;1662;49.310;8.134;2023-09-18T08:02:47;3.10;;;2.57;;
3299;SDS011;1662;49.310;8.134;2023-09-18T08:05:15;4.30;;;2.50;;
3299;SDS011;1662;49.310;8.134;2023-09-18T08:07:41;5.10;;;2.47;;
3299;SDS011;1662;49.310;8.134;2023-09-18T08:10:07;4.83;;;2.73;;
3299;SDS011;1662;49.310;8.134;2023-09-18T08:12:36;2.47;;;2.27;;
3299;SDS011;1662;49.310;8.134;2023-09-18T08:15:01;6.77;;;2.73;;
3299;SDS011;1662;49.310;8.134;2023-09-18T08:17:27;7.93;;;3.60;;
3299;SDS011;1662;49.310;8.134;2023-09-18T08:19:53;8.07;;;2.80;;
3299;SDS011;1662;49.310;8.134;2023-09-18T08:22:19;5.40;;;2.90;;
3299;SDS011;1662;49.310;8.134;2023-09-18T08:24:50;5.20;;;2.60;;
3299;SDS011;1662;49.310;8.134;2023-09-18T08:27:17;2.83;;;2.50;;
3299;SDS011;1662;49.310;8.134;2023-09-18T08:29:44;5.70;;;2.90;;
3299;SDS011;1662;49.310;8.134;2023-09-18T08:32:11;4.17;;;3.00;;
3299;SDS011;1662;49.310;8.134;2023-09-18T08:34:36;7.07;;;3.13;;
3299;SDS011;1662;49.310;8.134;2023-09-18T08:37:02;5.17;;;2.27;;
3299;SDS011;1662;49.310;8.134;2023-09-18T08:39:29;4.40;;;2.90;;
3299;SDS011;1662;49.310;8.134;2023-09-18T08:41:58;6.87;;;2.67;;
3299;SDS011;1662;49.310;8.134;2023-09-18T08:44:29;9.67;;;2.63;;
3299;SDS011;1662;49.310;8.134;2023-09-18T08:46:55;2.27;;;2.07;;
3299;SDS011;1662;49.310;8.134;2023-09-18T08:49:24;2.33;;;2.13;;
3299;SDS011;1662;49.310;8.134;2023-09-18T08:51:51;2.77;;;2.50;;
3299;SDS011;1662;49.310;8.134;2023-09-18T08:54:19;3.77;;;2.70;;
3299;SDS011;1662;49.310;8.134;2023-09-18T08:56:50;5.20;;;3.30;;
3299;SDS011;1662;49.310;8.134;2023-09-18T08:59:19;2.60;;;2.50;;
3299;SDS011;1662;49.310;8.134;2023-09-18T09:01:51;5.00;;;2.57;;
3299;SDS011;1662;49.310;8.134;2023-09-18T09:04:16;2.67;;;2.17;;
3299;SDS011;1662;49.310;8.134;2023-09-18T09:06:42;4.43;;;2.83;;
3299;SDS011;1662;49.310;8.134;2023-09-18T09:09:10;2.90;;;2.60;;
3299;SDS011;1662;49.310;8.134;2023-09-18T09:11:38;3.47;;;2.13;;
3299;SDS011;1662;49.310;8.134;2023-09-18T09:14:11;2.90;;;2.70;;
3299;SDS011;1662;49.310;8.134;2023-09-18T09:16:46;3.67;;;2.63;;
3299;SDS011;1662;49.310;8.134;2023-09-18T09:19:18;3.27;;;3.00;;
3299;SDS011;1662;49.310;8.134;2023-09-18T09:21:55;7.10;;;2.20;;
3299;SDS011;1662;49.310;8.134;2023-09-18T09:24:40;7.20;;;2.77;;
3299;SDS011;1662;49.310;8.134;2023-09-18T09:27:07;2.40;;;2.20;;
3299;SDS011;1662;49.310;8.134;2023-09-18T09:29:33;2.60;;;2.40;;
3299;SDS011;1662;49.310;8.134;2023-09-18T09:34:42;5.37;;;2.40;;
3299;SDS011;1662;49.310;8.134;2023-09-18T09:37:09;7.90;;;2.87;;
3299;SDS011;1662;49.310;8.134;2023-09-18T09:39:45;3.13;;;2.67;;
3299;SDS011;1662;49.310;8.134;2023-09-18T09:42:18;8.47;;;2.77;;
3299;SDS011;1662;49.310;8.134;2023-09-18T09:45:03;3.80;;;2.23;;
3299;SDS011;1662;49.310;8.134;2023-09-18T09:47:39;6.73;;;2.73;;
3299;SDS011;1662;49.310;8.134;2023-09-18T09:50:08;3.10;;;2.50;;
3299;SDS011;1662;49.310;8.134;2023-09-18T09:52:44;2.10;;;1.90;;
3299;SDS011;1662;49.310;8.134;2023-09-18T09:55:18;3.57;;;2.40;;
3299;SDS011;1662;49.310;8.134;2023-09-18T09:57:48;5.30;;;2.33;;
3299;SDS011;1662;49.310;8.134;2023-09-18T10:00:15;6.20;;;2.60;;
3299;SDS011;1662;49.310;8.134;2023-09-18T10:02:52;2.43;;;2.20;;
3299;SDS011;1662;49.310;8.134;2023-09-18T10:05:21;3.23;;;2.53;;
3299;SDS011;1662;49.310;8.134;2023-09-18T10:07:49;3.27;;;2.00;;
3299;SDS011;1662;49.310;8.134;2023-09-18T10:10:16;3.17;;;2.50;;
3299;SDS011;1662;49.310;8.134;2023-09-18T10:12:41;4.60;;;2.37;;
3299;SDS011;1662;49.310;8.134;2023-09-18T10:15:10;2.50;;;2.30;;
3299;SDS011;1662;49.310;8.134;2023-09-18T10:17:37;2.70;;;2.50;;
3299;SDS011;1662;49.310;8.134;2023-09-18T10:20:14;3.67;;;2.20;;
3299;SDS011;1662;49.310;8.134;2023-09-18T10:22:52;2.40;;;2.30;;
3299;SDS011;1662;49.310;8.134;2023-09-18T10:25:21;3.57;;;2.80;;
3299;SDS011;1662;49.310;8.134;2023-09-18T10:27:49;3.07;;;2.40;;
3299;SDS011;1662;49.310;8.134;2023-09-18T10:30:21;3.60;;;2.40;;
3299;SDS011;1662;49.310;8.134;2023-09-18T10:32:48;2.90;;;2.60;;
3299;SDS011;1662;49.310;8.134;2023-09-18T10:35:19;2.30;;;2.20;;
3299;SDS011;1662;49.310;8.134;2023-09-18T10:37:46;4.73;;;2.63;;
3299;SDS011;1662;49.310;8.134;2023-09-18T10:40:16;3.33;;;2.80;;
3299;SDS011;1662;49.310;8.134;2023-09-18T10:42:43;3.50;;;3.20;;
3299;SDS011;1662;49.310;8.134;2023-09-18T10:45:11;10.33;;;3.07;;
3299;SDS011;1662;49.310;8.134;2023-09-18T10:47:40;5.17;;;2.83;;
3299;SDS011;1662;49.310;8.134;2023-09-18T10:50:08;3.80;;;2.30;;
3299;SDS011;1662;49.310;8.134;2023-09-18T10:52:37;3.37;;;2.27;;
3299;SDS011;1662;49.310;8.134;2023-09-18T10:55:11;4.90;;;2.87;;
3299;SDS011;1662;49.310;8.134;2023-09-18T10:57:49;2.87;;;2.63;;
3299;SDS011;1662;49.310;8.134;2023-09-18T11:00:16;5.27;;;2.50;;
3299;SDS011;1662;49.310;8.134;2023-09-18T11:02:47;4.77;;;3.00;;
3299;SDS011;1662;49.310;8.134;2023-09-18T11:05:33;4.63;;;2.53;;
3299;SDS011;1662;49.310;8.134;2023-09-18T11:11:17;4.47;;;3.03;;
3299;SDS011;1662;49.310;8.134;2023-09-18T11:13:45;7.03;;;2.40;;
3299;SDS011;1662;49.310;8.134;2023-09-18T11:16:16;2.57;;;2.40;;
3299;SDS011;1662;49.310;8.134;2023-09-18T11:18:41;8.20;;;2.20;;
3299;SDS011;1662;49.310;8.134;2023-09-18T11:21:10;2.87;;;2.47;;
3299;SDS011;1662;49.310;8.134;2023-09-18T11:23:37;3.90;;;2.27;;
3299;SDS011;1662;49.310;8.134;2023-09-18T11:26:08;3.87;;;2.50;;
3299;SDS011;1662;49.310;8.134;2023-09-18T11:28:35;6.87;;;3.40;;
3299;SDS011;1662;49.310;8.134;2023-09-18T11:31:04;2.47;;;2.27;;
3299;SDS011;1662;49.310;8.134;2023-09-18T11:33:31;2.73;;;2.53;;
3299;SDS011;1662;49.310;8.134;2023-09-18T11:36:01;3.33;;;2.57;;
3299;SDS011;1662;49.310;8.134;2023-09-18T11:38:54;2.73;;;2.50;;
3299;SDS011;1662;49.310;8.134;2023-09-18T11:41:22;2.90;;;2.27;;
3299;SDS011;1662;49.310;8.134;2023-09-18T11:43:52;7.50;;;2.20;;
3299;SDS011;1662;49.310;8.134;2023-09-18T11:46:50;3.77;;;2.90;;
3299;SDS011;1662;49.310;8.134;2023-09-18T11:49:23;4.90;;;2.40;;
3299;SDS011;1662;49.310;8.134;2023-09-18T11:51:53;3.10;;;2.70;;
3299;SDS011;1662;49.310;8.134;2023-09-18T11:54:23;3.63;;;2.20;;
3299;SDS011;1662;49.310;8.134;2023-09-18T11:56:52;2.57;;;2.37;;
3299;SDS011;1662;49.310;8.134;2023-09-18T11:59:17;3.93;;;2.70;;
3299;SDS011;1662;49.310;8.134;2023-09-18T12:01:52;2.50;;;2.30;;
3299;SDS011;1662;49.310;8.134;2023-09-18T12:04:29;2.70;;;2.57;;
3299;SDS011;1662;49.310;8.134;2023-09-18T12:07:00;3.77;;;2.67;;
3299;SDS011;1662;49.310;8.134;2023-09-18T12:09:29;4.60;;;2.53;;
3299;SDS011;1662;49.310;8.134;2023-09-18T12:11:56;2.40;;;2.07;;
3299;SDS011;1662;49.310;8.134;2023-09-18T12:14:31;2.93;;;2.37;;
3299;SDS011;1662;49.310;8.134;2023-09-18T12:16:59;3.40;;;2.63;;
3299;SDS011;1662;49.310;8.134;2023-09-18T12:19:28;4.57;;;2.63;;
3299;SDS011;1662;49.310;8.134;2023-09-18T12:21:55;2.73;;;2.47;;
3299;SDS011;1662;49.310;8.134;2023-09-18T12:24:22;4.27;;;2.33;;
3299;SDS011;1662;49.310;8.134;2023-09-18T12:26:49;3.20;;;2.67;;
3299;SDS011;1662;49.310;8.134;2023-09-18T12:29:16;2.43;;;2.23;;
3299;SDS011;1662;49.310;8.134;2023-09-18T12:31:42;2.57;;;2.47;;
3299;SDS011;1662;49.310;8.134;2023-09-18T12:34:17;2.60;;;2.40;;
3299;SDS011;1662;49.310;8.134;2023-09-18T12:36:43;5.00;;;2.50;;
3299;SDS011;1662;49.310;8.134;2023-09-18T12:39:12;6.67;;;2.40;;
3299;SDS011;1662;49.310;8.134;2023-09-18T12:41:41;3.23;;;2.67;;
3299;SDS011;1662;49.310;8.134;2023-09-18T12:44:11;4.07;;;2.90;;
3299;SDS011;1662;49.310;8.134;2023-09-18T12:46:41;4.60;;;2.67;;
3299;SDS011;1662;49.310;8.134;2023-09-18T12:49:19;2.60;;;2.40;;
3299;SDS011;1662;49.310;8.134;2023-09-18T12:51:59;5.00;;;2.80;;
3299;SDS011;1662;49.310;8.134;2023-09-18T12:54:42;7.80;;;2.53;;
3299;SDS011;1662;49.310;8.134;2023-09-18T12:57:19;4.20;;;2.80;;
3299;SDS011;1662;49.310;8.134;2023-09-18T12:59:45;4.93;;;2.50;;
3299;SDS011;1662;49.310;8.134;2023-09-18T13:02:19;3.00;;;2.57;;
3299;SDS011;1662;49.310;8.134;2023-09-18T13:04:55;3.30;;;2.77;;
3299;SDS011;1662;49.310;8.134;2023-09-18T13:07:24;4.80;;;3.50;;
3299;SDS011;1662;49.310;8.134;2023-09-18T13:10:00;3.03;;;2.83;;
3299;SDS011;1662;49.310;8.134;2023-09-18T13:12:38;6.60;;;2.57;;
3299;SDS011;1662;49.310;8.134;2023-09-18T13:15:05;4.17;;;2.70;;
3299;SDS011;1662;49.310;8.134;2023-09-18T13:17:38;3.07;;;2.57;;
3299;SDS011;1662;49.310;8.134;2023-09-18T13:20:14;2.20;;;2.00;;
3299;SDS011;1662;49.310;8.134;2023-09-18T13:22:49;2.33;;;2.13;;
3299;SDS011;1662;49.310;8.134;2023-09-18T13:25:25;2.80;;;2.60;;
3299;SDS011;1662;49.310;8.134;2023-09-18T13:27:53;3.03;;;2.50;;
3299;SDS011;1662;49.310;8.134;2023-09-18T13:30:20;2.80;;;2.57;;
3299;SDS011;1662;49.310;8.134;2023-09-18T13:32:47;2.33;;;1.93;;
3299;SDS011;1662;49.310;8.134;2023-09-18T13:35:16;3.03;;;2.60;;
3299;SDS011;1662;49.310;8.134;2023-09-18T13:37:43;5.33;;;2.60;;
3299;SDS011;1662;49.310;8.134;2023-09-18T13:40:09;2.60;;;2.47;;
3299;SDS011;1662;49.310;8.134;2023-09-18T13:42:35;3.00;;;2.47;;
3299;SDS011;1662;49.310;8.134;2023-09-18T13:45:14;2.27;;;2.07;;
3299;SDS011;1662;49.310;8.134;2023-09-18T13:47:42;2.60;;;2.40;;
3299;SDS011;1662;49.310;8.134;2023-09-18T13:50:08;3.23;;;2.37;;
3299;SDS011;1662;49.310;8.134;2023-09-18T13:52:37;2.33;;;2.03;;
3299;SDS011;1662;49.310;8.134;2023-09-18T13:55:03;3.10;;;2.60;;
3299;SDS011;1662;49.310;8.134;2023-09-18T13:57:33;7.30;;;2.50;;
3299;SDS011;1662;49.310;8.134;2023-09-18T14:00:00;2.63;;;2.53;;
3299;SDS011;1662;49.310;8.134;2023-09-18T14:02:30;3.30;;;2.60;;
3299;SDS011;1662;49.310;8.134;2023-09-18T14:05:14;5.43;;;2.77;;
3299;SDS011;1662;49.310;8.134;2023-09-18T14:08:21;3.27;;;2.87;;
3299;SDS011;1662;49.310;8.134;2023-09-18T14:10:46;3.23;;;3.03;;
3299;SDS011;1662;49.310;8.134;2023-09-18T14:13:32;3.60;;;3.30;;
3299;SDS011;1662;49.310;8.134;2023-09-18T14:16:16;4.53;;;3.10;;
3299;SDS011;1662;49.310;8.134;2023-09-18T14:18:42;4.00;;;2.20;;
3299;SDS011;1662;49.310;8.134;2023-09-18T14:21:08;2.20;;;2.00;;
3299;SDS011;1662;49.310;8.134;2023-09-18T14:23:34;5.70;;;2.70;;
3299;SDS011;1662;49.310;8.134;2023-09-18T14:26:00;3.00;;;2.70;;
3299;SDS011;1662;49.310;8.134;2023-09-18T14:28:33;2.70;;;2.50;;
3299;SDS011;1662;49.310;8.134;2023-09-18T14:31:02;2.90;;;2.40;;
3299;SDS011;1662;49.310;8.134;2023-09-18T14:33:31;3.70;;;2.23;;
3299;SDS011;1662;49.310;8.134;2023-09-18T14:36:01;3.00;;;2.73;;
3299;SDS011;1662;49.310;8.134;2023-09-18T14:38:29;2.60;;;2.50;;
3299;SDS011;1662;49.310;8.134;2023-09-18T14:40:55;2.73;;;2.53;;
3299;SDS011;1662;49.310;8.134;2023-09-18T14:43:26;2.20;;;2.10;;
3299;SDS011;1662;49.310;8.134;2023-09-18T14:45:54;2.77;;;2.43;;
3299;SDS011;1662;49.310;8.134;2023-09-18T14:48:33;2.60;;;2.20;;
3299;SDS011;1662;49.310;8.134;2023-09-18T14:50:59;2.20;;;2.10;;
3299;SDS011;1662;49.310;8.134;2023-09-18T14:53:25;2.60;;;2.37;;
3299;SDS011;1662;49.310;8.134;2023-09-18T14:55:54;3.80;;;3.60;;
3299;SDS011;1662;49.310;8.134;2023-09-18T14:58:24;3.70;;;2.90;;
3299;SDS011;1662;49.310;8.134;2023-09-18T15:00:49;7.30;;;2.60;;
3299;SDS011;1662;49.310;8.134;2023-09-18T15:03:15;2.90;;;2.53;;
3299;SDS011;1662;49.310;8.134;2023-09-18T15:05:41;2.60;;;2.50;;
3299;SDS011;1662;49.310;8.134;2023-09-18T15:08:07;4.67;;;2.60;;
3299;SDS011;1662;49.310;8.134;2023-09-18T15:10:33;2.40;;;2.20;;
3299;SDS011;1662;49.310;8.134;2023-09-18T15:12:59;3.23;;;2.13;;
3299;SDS011;1662;49.310;8.134;2023-09-18T15:15:24;3.00;;;2.50;;
3299;SDS011;1662;49.310;8.134;2023-09-18T15:17:52;3.53;;;2.90;;
3299;SDS011;1662;49.310;8.134;2023-09-18T15:20:18;4.13;;;2.47;;
3299;SDS011;1662;49.310;8.134;2023-09-18T15:22:54;2.67;;;2.47;;
3299;SDS011;1662;49.310;8.134;2023-09-18T15:25:21;2.63;;;2.53;;
3299;SDS011;1662;49.310;8.134;2023-09-18T15:27:47;3.53;;;2.90;;
3299;SDS011;1662;49.310;8.134;2023-09-18T15:30:15;2.83;;;2.73;;
3299;SDS011;1662;49.310;8.134;2023-09-18T15:32:48;2.90;;;2.70;;
3299;SDS011;1662;49.310;8.134;2023-09-18T15:35:19;2.67;;;2.47;;
3299;SDS011;1662;49.310;8.134;2023-09-18T15:37:48;3.23;;;2.63;;
3299;SDS011;1662;49.310;8.134;2023-09-18T15:40:14;3.00;;;2.77;;
3299;SDS011;1662;49.310;8.134;2023-09-18T15:42:43;3.13;;;2.80;;
3299;SDS011;1662;49.310;8.134;2023-09-18T15:45:09;3.00;;;2.70;;
3299;SDS011;1662;49.310;8.134;2023-09-18T15:47:38;2.83;;;2.57;;
3299;SDS011;1662;49.310;8.134;2023-09-18T15:50:05;3.40;;;2.83;;
3299;SDS011;1662;49.310;8.134;2023-09-18T15:52:34;2.80;;;2.60;;